sensor_id;sensor_type;location;lat;lon;timestamp;P1;durP1;ratioP1;P2;durP2;ratioP2
27586;SDS011;15019;49.002;8.420;2022-08-19T00:00:14;18.42;;;14.68;;
27586;SDS011;15019;49.002;8.420;2022-08-19T00:02:40;16.42;;;14.73;;
27586;SDS011;15019;49.002;8.420;2022-08-19T00:05:05;18.77;;;15.38;;
27586;SDS011;15019;49.002;8.420;2022-08-19T00:07:32;18.00;;;15.07;;
27586;SDS011;15019;49.002;8.420;2022-08-19T00:09:57;17.00;;;15.20;;
27586;SDS011;15019;49.002;8.420;2022-08-19T00:12:22;17.38;;;14.85;;
27586;SDS011;15019;49.002;8.420;2022-08-19T00:14:48;18.40;;;15.32;;
27586;SDS011;15019;49.002;8.420;2022-08-19T00:17:13;22.92;;;15.80;;
27586;SDS011;15019;49.002;8.420;2022-08-19T00:19:38;18.27;;;15.75;;
27586;SDS011;15019;49.002;8.420;2022-08-19T00:22:04;19.23;;;16.42;;
27586;SDS011;15019;49.002;8.420;2022-08-19T00:24:30;18.75;;;15.60;;
27586;SDS011;15019;49.002;8.420;2022-08-19T00:26:56;18.65;;;15.35;;
27586;SDS011;15019;49.002;8.420;2022-08-19T00:29:22;17.30;;;15.23;;
27586;SDS011;15019;49.002;8.420;2022-08-19T00:31:50;17.75;;;15.50;;
27586;SDS011;15019;49.002;8.420;2022-08-19T00:34:16;17.08;;;15.27;;
27586;SDS011;15019;49.002;8.420;2022-08-19T00:36:42;17.98;;;15.35;;
27586;SDS011;15019;49.002;8.420;2022-08-19T00:39:08;17.45;;;15.15;;
27586;SDS011;15019;49.002;8.420;2022-08-19T00:41:34;20.58;;;15.27;;
27586;SDS011;15019;49.002;8.420;2022-08-19T00:46:34;17.30;;;15.50;;
27586;SDS011;15019;49.002;8.420;2022-08-19T00:49:00;19.45;;;16.13;;
27586;SDS011;15019;49.002;8.420;2022-08-19T00:51:30;18.95;;;16.30;;
27586;SDS011;15019;49.002;8.420;2022-08-19T00:53:56;17.63;;;15.43;;
27586;SDS011;15019;49.002;8.420;2022-08-19T00:56:23;18.30;;;16.35;;
27586;SDS011;15019;49.002;8.420;2022-08-19T00:58:48;18.70;;;16.70;;
27586;SDS011;15019;49.002;8.420;2022-08-19T01:01:14;17.17;;;15.38;;
27586;SDS011;15019;49.002;8.420;2022-08-19T01:03:40;18.70;;;16.30;;
27586;SDS011;15019;49.002;8.420;2022-08-19T01:06:06;19.85;;;16.85;;
27586;SDS011;15019;49.002;8.420;2022-08-19T01:08:31;21.80;;;17.00;;
27586;SDS011;15019;49.002;8.420;2022-08-19T01:10:58;19.40;;;17.35;;
27586;SDS011;15019;49.002;8.420;2022-08-19T01:13:25;19.10;;;16.98;;
27586;SDS011;15019;49.002;8.420;2022-08-19T01:15:57;19.88;;;17.10;;
27586;SDS011;15019;49.002;8.420;2022-08-19T01:18:26;19.40;;;17.40;;
27586;SDS011;15019;49.002;8.420;2022-08-19T01:20:54;19.20;;;17.20;;
27586;SDS011;15019;49.002;8.420;2022-08-19T01:23:22;19.35;;;17.35;;
27586;SDS011;15019;49.002;8.420;2022-08-19T01:25:49;18.33;;;16.42;;
27586;SDS011;15019;49.002;8.420;2022-08-19T01:30:44;22.40;;;17.27;;
27586;SDS011;15019;49.002;8.420;2022-08-19T01:33:12;19.70;;;17.48;;
27586;SDS011;15019;49.002;8.420;2022-08-19T01:35:38;21.20;;;17.88;;
27586;SDS011;15019;49.002;8.420;2022-08-19T01:38:06;19.83;;;17.70;;
27586;SDS011;15019;49.002;8.420;2022-08-19T01:40:35;19.98;;;17.88;;
27586;SDS011;15019;49.002;8.420;2022-08-19T01:43:03;22.08;;;17.83;;
27586;SDS011;15019;49.002;8.420;2022-08-19T01:45:29;20.08;;;17.48;;
27586;SDS011;15019;49.002;8.420;2022-08-19T01:47:56;20.08;;;18.00;;
27586;SDS011;15019;49.002;8.420;2022-08-19T01:50:22;19.98;;;17.88;;
27586;SDS011;15019;49.002;8.420;2022-08-19T01:52:48;21.67;;;19.15;;
27586;SDS011;15019;49.002;8.420;2022-08-19T01:55:14;24.05;;;19.83;;
27586;SDS011;15019;49.002;8.420;2022-08-19T01:57:42;21.27;;;19.08;;
27586;SDS011;15019;49.002;8.420;2022-08-19T02:00:13;21.60;;;18.90;;
27586;SDS011;15019;49.002;8.420;2022-08-19T02:02:40;21.90;;;19.38;;
27586;SDS011;15019;49.002;8.420;2022-08-19T02:05:06;22.67;;;19.35;;
27586;SDS011;15019;49.002;8.420;2022-08-19T02:07:32;22.05;;;19.75;;
27586;SDS011;15019;49.002;8.420;2022-08-19T02:09:57;24.42;;;21.38;;
27586;SDS011;15019;49.002;8.420;2022-08-19T02:12:23;22.55;;;20.25;;
27586;SDS011;15019;49.002;8.420;2022-08-19T02:14:48;25.58;;;21.85;;
27586;SDS011;15019;49.002;8.420;2022-08-19T02:17:16;24.20;;;21.63;;
27586;SDS011;15019;49.002;8.420;2022-08-19T02:19:41;24.27;;;21.67;;
27586;SDS011;15019;49.002;8.420;2022-08-19T02:22:06;25.13;;;21.80;;
27586;SDS011;15019;49.002;8.420;2022-08-19T02:24:32;23.77;;;21.23;;
27586;SDS011;15019;49.002;8.420;2022-08-19T02:26:57;24.38;;;21.83;;
27586;SDS011;15019;49.002;8.420;2022-08-19T02:29:22;24.52;;;21.90;;
27586;SDS011;15019;49.002;8.420;2022-08-19T02:31:48;27.65;;;22.90;;
27586;SDS011;15019;49.002;8.420;2022-08-19T02:34:13;25.23;;;21.05;;
27586;SDS011;15019;49.002;8.420;2022-08-19T02:36:38;25.50;;;21.48;;
27586;SDS011;15019;49.002;8.420;2022-08-19T02:39:04;25.73;;;22.38;;
27586;SDS011;15019;49.002;8.420;2022-08-19T02:41:31;25.98;;;22.83;;
27586;SDS011;15019;49.002;8.420;2022-08-19T02:43:59;26.20;;;22.48;;
27586;SDS011;15019;49.002;8.420;2022-08-19T02:46:27;26.95;;;23.08;;
27586;SDS011;15019;49.002;8.420;2022-08-19T02:48:55;31.20;;;24.27;;
27586;SDS011;15019;49.002;8.420;2022-08-19T02:51:33;27.77;;;23.17;;
27586;SDS011;15019;49.002;8.420;2022-08-19T02:54:04;28.98;;;25.00;;
27586;SDS011;15019;49.002;8.420;2022-08-19T02:56:31;29.80;;;23.45;;
27586;SDS011;15019;49.002;8.420;2022-08-19T03:01:25;28.10;;;24.40;;
27586;SDS011;15019;49.002;8.420;2022-08-19T03:03:56;27.52;;;24.10;;
27586;SDS011;15019;49.002;8.420;2022-08-19T03:06:23;27.50;;;23.67;;
27586;SDS011;15019;49.002;8.420;2022-08-19T03:08:49;27.00;;;23.88;;
27586;SDS011;15019;49.002;8.420;2022-08-19T03:11:23;27.85;;;23.52;;
27586;SDS011;15019;49.002;8.420;2022-08-19T03:13:48;27.05;;;23.15;;
27586;SDS011;15019;49.002;8.420;2022-08-19T03:16:15;25.55;;;22.13;;
27586;SDS011;15019;49.002;8.420;2022-08-19T03:18:41;29.33;;;25.73;;
27586;SDS011;15019;49.002;8.420;2022-08-19T03:21:07;31.33;;;25.02;;
27586;SDS011;15019;49.002;8.420;2022-08-19T03:23:33;27.85;;;24.33;;
27586;SDS011;15019;49.002;8.420;2022-08-19T03:26:02;27.85;;;24.85;;
27586;SDS011;15019;49.002;8.420;2022-08-19T03:28:28;30.48;;;24.40;;
27586;SDS011;15019;49.002;8.420;2022-08-19T03:30:55;29.70;;;24.27;;
27586;SDS011;15019;49.002;8.420;2022-08-19T03:33:26;27.40;;;23.98;;
27586;SDS011;15019;49.002;8.420;2022-08-19T03:36:07;29.65;;;24.35;;
27586;SDS011;15019;49.002;8.420;2022-08-19T03:38:42;28.40;;;25.05;;
27586;SDS011;15019;49.002;8.420;2022-08-19T03:41:11;27.83;;;24.30;;
27586;SDS011;15019;49.002;8.420;2022-08-19T03:43:39;29.73;;;25.33;;
27586;SDS011;15019;49.002;8.420;2022-08-19T03:46:07;28.75;;;25.13;;
27586;SDS011;15019;49.002;8.420;2022-08-19T03:48:35;30.40;;;25.63;;
27586;SDS011;15019;49.002;8.420;2022-08-19T03:51:01;28.00;;;25.13;;
27586;SDS011;15019;49.002;8.420;2022-08-19T03:53:28;31.38;;;26.55;;
27586;SDS011;15019;49.002;8.420;2022-08-19T03:55:55;30.98;;;27.13;;
27586;SDS011;15019;49.002;8.420;2022-08-19T03:58:21;31.83;;;27.05;;
27586;SDS011;15019;49.002;8.420;2022-08-19T04:00:47;31.30;;;26.77;;
27586;SDS011;15019;49.002;8.420;2022-08-19T04:03:12;30.90;;;26.90;;
27586;SDS011;15019;49.002;8.420;2022-08-19T04:05:38;33.58;;;28.17;;
27586;SDS011;15019;49.002;8.420;2022-08-19T04:08:04;34.05;;;28.20;;
27586;SDS011;15019;49.002;8.420;2022-08-19T04:10:29;32.72;;;27.27;;
27586;SDS011;15019;49.002;8.420;2022-08-19T04:12:54;34.30;;;29.20;;
27586;SDS011;15019;49.002;8.420;2022-08-19T04:15:20;34.20;;;28.98;;
27586;SDS011;15019;49.002;8.420;2022-08-19T04:17:45;34.15;;;28.17;;
27586;SDS011;15019;49.002;8.420;2022-08-19T04:20:10;31.30;;;27.67;;
27586;SDS011;15019;49.002;8.420;2022-08-19T04:22:36;36.00;;;28.67;;
27586;SDS011;15019;49.002;8.420;2022-08-19T04:25:01;37.97;;;29.55;;
27586;SDS011;15019;49.002;8.420;2022-08-19T04:27:27;37.15;;;30.48;;
27586;SDS011;15019;49.002;8.420;2022-08-19T04:29:53;33.97;;;28.52;;
27586;SDS011;15019;49.002;8.420;2022-08-19T04:32:18;34.65;;;28.98;;
27586;SDS011;15019;49.002;8.420;2022-08-19T04:34:43;32.92;;;28.85;;
27586;SDS011;15019;49.002;8.420;2022-08-19T04:37:09;34.88;;;27.73;;
27586;SDS011;15019;49.002;8.420;2022-08-19T04:39:34;35.03;;;29.40;;
27586;SDS011;15019;49.002;8.420;2022-08-19T04:41:59;34.28;;;28.95;;
27586;SDS011;15019;49.002;8.420;2022-08-19T04:44:25;34.38;;;28.83;;
27586;SDS011;15019;49.002;8.420;2022-08-19T04:46:50;33.30;;;27.90;;
27586;SDS011;15019;49.002;8.420;2022-08-19T04:49:18;32.95;;;28.15;;
27586;SDS011;15019;49.002;8.420;2022-08-19T04:51:45;34.05;;;29.10;;
27586;SDS011;15019;49.002;8.420;2022-08-19T04:54:11;34.03;;;28.63;;
27586;SDS011;15019;49.002;8.420;2022-08-19T04:56:38;34.00;;;28.20;;
27586;SDS011;15019;49.002;8.420;2022-08-19T04:59:04;36.03;;;29.35;;
27586;SDS011;15019;49.002;8.420;2022-08-19T05:01:30;38.75;;;30.77;;
27586;SDS011;15019;49.002;8.420;2022-08-19T05:03:58;34.22;;;28.80;;
27586;SDS011;15019;49.002;8.420;2022-08-19T05:06:25;32.45;;;27.23;;
27586;SDS011;15019;49.002;8.420;2022-08-19T05:08:50;35.65;;;28.65;;
27586;SDS011;15019;49.002;8.420;2022-08-19T05:11:21;33.40;;;27.90;;
27586;SDS011;15019;49.002;8.420;2022-08-19T05:13:48;34.15;;;28.15;;
27586;SDS011;15019;49.002;8.420;2022-08-19T05:16:15;35.00;;;28.77;;
27586;SDS011;15019;49.002;8.420;2022-08-19T05:18:42;34.03;;;27.40;;
27586;SDS011;15019;49.002;8.420;2022-08-19T05:21:08;37.33;;;29.60;;
27586;SDS011;15019;49.002;8.420;2022-08-19T05:23:37;34.00;;;27.98;;
27586;SDS011;15019;49.002;8.420;2022-08-19T05:26:03;36.38;;;29.27;;
27586;SDS011;15019;49.002;8.420;2022-08-19T05:28:28;34.42;;;28.70;;
27586;SDS011;15019;49.002;8.420;2022-08-19T05:30:53;35.50;;;28.75;;
27586;SDS011;15019;49.002;8.420;2022-08-19T05:33:19;34.35;;;27.67;;
27586;SDS011;15019;49.002;8.420;2022-08-19T05:35:44;36.05;;;28.42;;
27586;SDS011;15019;49.002;8.420;2022-08-19T05:38:09;32.75;;;27.25;;
27586;SDS011;15019;49.002;8.420;2022-08-19T05:40:35;34.08;;;28.25;;
27586;SDS011;15019;49.002;8.420;2022-08-19T05:43:00;32.00;;;26.80;;
27586;SDS011;15019;49.002;8.420;2022-08-19T05:45:26;33.47;;;28.02;;
27586;SDS011;15019;49.002;8.420;2022-08-19T05:47:51;32.75;;;27.65;;
27586;SDS011;15019;49.002;8.420;2022-08-19T05:50:17;31.67;;;26.88;;
27586;SDS011;15019;49.002;8.420;2022-08-19T05:52:42;31.65;;;27.50;;
27586;SDS011;15019;49.002;8.420;2022-08-19T05:55:07;32.05;;;27.40;;
27586;SDS011;15019;49.002;8.420;2022-08-19T05:57:33;34.53;;;26.15;;
27586;SDS011;15019;49.002;8.420;2022-08-19T05:59:58;31.00;;;26.35;;
27586;SDS011;15019;49.002;8.420;2022-08-19T06:02:26;35.78;;;27.95;;
27586;SDS011;15019;49.002;8.420;2022-08-19T06:04:53;33.63;;;26.23;;
27586;SDS011;15019;49.002;8.420;2022-08-19T06:07:18;31.75;;;25.55;;
27586;SDS011;15019;49.002;8.420;2022-08-19T06:09:44;31.98;;;25.65;;
27586;SDS011;15019;49.002;8.420;2022-08-19T06:12:09;29.58;;;25.15;;
27586;SDS011;15019;49.002;8.420;2022-08-19T06:14:35;31.48;;;25.67;;
27586;SDS011;15019;49.002;8.420;2022-08-19T06:17:01;30.42;;;25.63;;
27586;SDS011;15019;49.002;8.420;2022-08-19T06:21:55;29.17;;;24.80;;
27586;SDS011;15019;49.002;8.420;2022-08-19T06:24:23;31.48;;;25.27;;
27586;SDS011;15019;49.002;8.420;2022-08-19T06:26:50;29.67;;;23.98;;
27586;SDS011;15019;49.002;8.420;2022-08-19T06:29:18;27.83;;;23.63;;
27586;SDS011;15019;49.002;8.420;2022-08-19T06:31:46;30.08;;;25.25;;
27586;SDS011;15019;49.002;8.420;2022-08-19T06:34:12;27.20;;;23.00;;
27586;SDS011;15019;49.002;8.420;2022-08-19T06:36:40;29.13;;;23.92;;
27586;SDS011;15019;49.002;8.420;2022-08-19T06:39:08;28.67;;;24.85;;
27586;SDS011;15019;49.002;8.420;2022-08-19T06:41:37;26.85;;;23.15;;
27586;SDS011;15019;49.002;8.420;2022-08-19T06:44:05;30.58;;;23.42;;
27586;SDS011;15019;49.002;8.420;2022-08-19T06:46:31;28.10;;;23.52;;
27586;SDS011;15019;49.002;8.420;2022-08-19T06:48:57;25.50;;;22.80;;
27586;SDS011;15019;49.002;8.420;2022-08-19T06:51:24;27.48;;;22.40;;
27586;SDS011;15019;49.002;8.420;2022-08-19T06:53:51;29.08;;;23.77;;
27586;SDS011;15019;49.002;8.420;2022-08-19T06:56:20;28.48;;;22.83;;
27586;SDS011;15019;49.002;8.420;2022-08-19T06:58:50;25.98;;;22.40;;
27586;SDS011;15019;49.002;8.420;2022-08-19T07:01:16;27.88;;;22.10;;
27586;SDS011;15019;49.002;8.420;2022-08-19T07:03:41;24.90;;;20.60;;
27586;SDS011;15019;49.002;8.420;2022-08-19T07:06:07;22.25;;;19.10;;
27586;SDS011;15019;49.002;8.420;2022-08-19T07:08:35;25.85;;;20.38;;
27586;SDS011;15019;49.002;8.420;2022-08-19T07:11:02;24.40;;;21.53;;
27586;SDS011;15019;49.002;8.420;2022-08-19T07:13:31;25.52;;;20.75;;
27586;SDS011;15019;49.002;8.420;2022-08-19T07:15:56;26.15;;;20.20;;
27586;SDS011;15019;49.002;8.420;2022-08-19T07:18:21;26.13;;;20.38;;
27586;SDS011;15019;49.002;8.420;2022-08-19T07:20:47;25.10;;;19.88;;
27586;SDS011;15019;49.002;8.420;2022-08-19T07:23:12;21.13;;;18.70;;
27586;SDS011;15019;49.002;8.420;2022-08-19T07:25:38;22.55;;;20.15;;
27586;SDS011;15019;49.002;8.420;2022-08-19T07:28:04;28.25;;;19.45;;
27586;SDS011;15019;49.002;8.420;2022-08-19T07:30:30;24.58;;;18.13;;
27586;SDS011;15019;49.002;8.420;2022-08-19T07:32:56;21.27;;;18.42;;
27586;SDS011;15019;49.002;8.420;2022-08-19T07:35:21;20.98;;;18.73;;
27586;SDS011;15019;49.002;8.420;2022-08-19T07:37:47;21.65;;;18.15;;
27586;SDS011;15019;49.002;8.420;2022-08-19T07:40:12;21.35;;;18.40;;
27586;SDS011;15019;49.002;8.420;2022-08-19T07:42:38;21.90;;;18.02;;
27586;SDS011;15019;49.002;8.420;2022-08-19T07:45:05;21.42;;;17.98;;
27586;SDS011;15019;49.002;8.420;2022-08-19T07:47:31;19.25;;;17.23;;
27586;SDS011;15019;49.002;8.420;2022-08-19T07:49:57;24.92;;;17.95;;
27586;SDS011;15019;49.002;8.420;2022-08-19T07:52:22;22.42;;;16.98;;
27586;SDS011;15019;49.002;8.420;2022-08-19T07:54:48;22.33;;;17.60;;
27586;SDS011;15019;49.002;8.420;2022-08-19T07:57:13;19.60;;;16.40;;
27586;SDS011;15019;49.002;8.420;2022-08-19T07:59:38;21.80;;;17.42;;
27586;SDS011;15019;49.002;8.420;2022-08-19T08:02:04;22.55;;;16.75;;
27586;SDS011;15019;49.002;8.420;2022-08-19T08:04:30;19.17;;;15.95;;
27586;SDS011;15019;49.002;8.420;2022-08-19T08:06:56;17.77;;;15.77;;
27586;SDS011;15019;49.002;8.420;2022-08-19T08:09:23;23.67;;;15.57;;
27586;SDS011;15019;49.002;8.420;2022-08-19T08:11:52;20.60;;;15.57;;
27586;SDS011;15019;49.002;8.420;2022-08-19T08:14:21;17.75;;;14.75;;
27586;SDS011;15019;49.002;8.420;2022-08-19T08:16:57;18.50;;;15.48;;
27586;SDS011;15019;49.002;8.420;2022-08-19T08:19:24;18.35;;;14.93;;
27586;SDS011;15019;49.002;8.420;2022-08-19T08:21:51;17.20;;;13.23;;
27586;SDS011;15019;49.002;8.420;2022-08-19T08:24:17;17.77;;;13.20;;
27586;SDS011;15019;49.002;8.420;2022-08-19T08:26:43;19.42;;;12.55;;
27586;SDS011;15019;49.002;8.420;2022-08-19T08:29:09;16.00;;;12.10;;
27586;SDS011;15019;49.002;8.420;2022-08-19T08:31:36;15.38;;;12.15;;
27586;SDS011;15019;49.002;8.420;2022-08-19T08:34:02;14.75;;;11.55;;
27586;SDS011;15019;49.002;8.420;2022-08-19T08:36:27;16.85;;;12.57;;
27586;SDS011;15019;49.002;8.420;2022-08-19T08:38:53;19.17;;;12.48;;
27586;SDS011;15019;49.002;8.420;2022-08-19T08:41:22;16.48;;;11.82;;
27586;SDS011;15019;49.002;8.420;2022-08-19T08:43:56;14.15;;;10.98;;
27586;SDS011;15019;49.002;8.420;2022-08-19T08:46:27;14.10;;;10.93;;
27586;SDS011;15019;49.002;8.420;2022-08-19T08:51:37;11.82;;;9.70;;
27586;SDS011;15019;49.002;8.420;2022-08-19T08:54:06;11.65;;;9.77;;
27586;SDS011;15019;49.002;8.420;2022-08-19T08:56:37;12.43;;;10.18;;
27586;SDS011;15019;49.002;8.420;2022-08-19T08:59:12;10.60;;;9.32;;
27586;SDS011;15019;49.002;8.420;2022-08-19T09:01:56;16.63;;;9.65;;
27586;SDS011;15019;49.002;8.420;2022-08-19T09:04:21;14.52;;;9.70;;
27586;SDS011;15019;49.002;8.420;2022-08-19T09:09:41;12.70;;;9.07;;
27586;SDS011;15019;49.002;8.420;2022-08-19T09:12:13;11.48;;;8.00;;
27586;SDS011;15019;49.002;8.420;2022-08-19T09:15:05;10.43;;;9.02;;
27586;SDS011;15019;49.002;8.420;2022-08-19T09:17:33;9.23;;;7.93;;
27586;SDS011;15019;49.002;8.420;2022-08-19T09:20:01;12.65;;;8.95;;
27586;SDS011;15019;49.002;8.420;2022-08-19T09:22:27;13.07;;;8.32;;
27586;SDS011;15019;49.002;8.420;2022-08-19T09:24:53;9.20;;;7.30;;
27586;SDS011;15019;49.002;8.420;2022-08-19T09:27:20;10.55;;;7.80;;
27586;SDS011;15019;49.002;8.420;2022-08-19T09:29:46;11.25;;;8.15;;
27586;SDS011;15019;49.002;8.420;2022-08-19T09:32:12;10.63;;;7.65;;
27586;SDS011;15019;49.002;8.420;2022-08-19T09:34:37;9.88;;;7.28;;
27586;SDS011;15019;49.002;8.420;2022-08-19T09:37:03;10.38;;;8.27;;
27586;SDS011;15019;49.002;8.420;2022-08-19T09:39:28;10.95;;;8.00;;
27586;SDS011;15019;49.002;8.420;2022-08-19T09:41:53;14.23;;;7.25;;
27586;SDS011;15019;49.002;8.420;2022-08-19T09:44:19;10.70;;;7.43;;
27586;SDS011;15019;49.002;8.420;2022-08-19T09:46:44;9.52;;;7.00;;
27586;SDS011;15019;49.002;8.420;2022-08-19T09:49:09;11.10;;;7.32;;
27586;SDS011;15019;49.002;8.420;2022-08-19T09:51:34;7.55;;;6.70;;
27586;SDS011;15019;49.002;8.420;2022-08-19T09:54:02;8.00;;;6.28;;
27586;SDS011;15019;49.002;8.420;2022-08-19T09:56:28;8.73;;;6.88;;
27586;SDS011;15019;49.002;8.420;2022-08-19T09:58:54;11.02;;;7.38;;
27586;SDS011;15019;49.002;8.420;2022-08-19T10:01:21;7.78;;;6.28;;
27586;SDS011;15019;49.002;8.420;2022-08-19T10:03:49;8.40;;;6.63;;
27586;SDS011;15019;49.002;8.420;2022-08-19T10:08:41;10.27;;;6.70;;
27586;SDS011;15019;49.002;8.420;2022-08-19T10:11:07;12.55;;;7.25;;
27586;SDS011;15019;49.002;8.420;2022-08-19T10:13:34;8.77;;;6.93;;
27586;SDS011;15019;49.002;8.420;2022-08-19T10:16:04;10.25;;;6.90;;
27586;SDS011;15019;49.002;8.420;2022-08-19T10:18:32;11.65;;;7.20;;
27586;SDS011;15019;49.002;8.420;2022-08-19T10:21:03;11.65;;;7.78;;
27586;SDS011;15019;49.002;8.420;2022-08-19T10:23:30;9.55;;;7.15;;
27586;SDS011;15019;49.002;8.420;2022-08-19T10:25:58;9.00;;;6.82;;
27586;SDS011;15019;49.002;8.420;2022-08-19T10:28:25;11.50;;;6.97;;
27586;SDS011;15019;49.002;8.420;2022-08-19T10:30:50;8.50;;;6.10;;
27586;SDS011;15019;49.002;8.420;2022-08-19T10:33:15;8.55;;;6.90;;
27586;SDS011;15019;49.002;8.420;2022-08-19T10:35:40;12.65;;;6.55;;
27586;SDS011;15019;49.002;8.420;2022-08-19T10:38:06;7.45;;;6.40;;
27586;SDS011;15019;49.002;8.420;2022-08-19T10:40:33;10.25;;;5.80;;
27586;SDS011;15019;49.002;8.420;2022-08-19T10:42:58;7.80;;;6.27;;
27586;SDS011;15019;49.002;8.420;2022-08-19T10:45:23;6.90;;;5.55;;
27586;SDS011;15019;49.002;8.420;2022-08-19T10:47:49;10.50;;;6.28;;
27586;SDS011;15019;49.002;8.420;2022-08-19T10:50:14;9.10;;;6.88;;
27586;SDS011;15019;49.002;8.420;2022-08-19T10:52:40;10.23;;;7.30;;
27586;SDS011;15019;49.002;8.420;2022-08-19T10:55:07;12.45;;;7.28;;
27586;SDS011;15019;49.002;8.420;2022-08-19T10:57:33;9.48;;;6.80;;
27586;SDS011;15019;49.002;8.420;2022-08-19T10:59:58;7.68;;;6.70;;
27586;SDS011;15019;49.002;8.420;2022-08-19T11:02:24;14.23;;;7.50;;
27586;SDS011;15019;49.002;8.420;2022-08-19T11:04:49;10.48;;;6.97;;
27586;SDS011;15019;49.002;8.420;2022-08-19T11:07:14;8.95;;;6.72;;
27586;SDS011;15019;49.002;8.420;2022-08-19T11:09:41;10.15;;;6.68;;
27586;SDS011;15019;49.002;8.420;2022-08-19T11:12:07;10.15;;;7.53;;
27586;SDS011;15019;49.002;8.420;2022-08-19T11:14:33;11.05;;;7.38;;
27586;SDS011;15019;49.002;8.420;2022-08-19T11:16:59;12.48;;;7.63;;
27586;SDS011;15019;49.002;8.420;2022-08-19T11:19:24;10.52;;;7.07;;
27586;SDS011;15019;49.002;8.420;2022-08-19T11:21:50;7.57;;;6.10;;
27586;SDS011;15019;49.002;8.420;2022-08-19T11:24:18;9.63;;;6.33;;
27586;SDS011;15019;49.002;8.420;2022-08-19T11:26:46;13.07;;;7.68;;
27586;SDS011;15019;49.002;8.420;2022-08-19T11:29:13;10.68;;;7.10;;
27586;SDS011;15019;49.002;8.420;2022-08-19T11:31:40;13.45;;;7.20;;
27586;SDS011;15019;49.002;8.420;2022-08-19T11:34:08;10.77;;;6.20;;
27586;SDS011;15019;49.002;8.420;2022-08-19T11:36:36;9.90;;;6.80;;
27586;SDS011;15019;49.002;8.420;2022-08-19T11:41:30;7.68;;;6.32;;
27586;SDS011;15019;49.002;8.420;2022-08-19T11:43:56;12.10;;;7.22;;
27586;SDS011;15019;49.002;8.420;2022-08-19T11:46:22;8.35;;;6.65;;
27586;SDS011;15019;49.002;8.420;2022-08-19T11:48:49;10.05;;;6.40;;
27586;SDS011;15019;49.002;8.420;2022-08-19T11:51:17;9.07;;;6.45;;
27586;SDS011;15019;49.002;8.420;2022-08-19T11:53:45;8.55;;;6.57;;
27586;SDS011;15019;49.002;8.420;2022-08-19T11:56:11;8.82;;;6.20;;
27586;SDS011;15019;49.002;8.420;2022-08-19T11:58:37;13.65;;;6.57;;
27586;SDS011;15019;49.002;8.420;2022-08-19T12:01:07;12.02;;;6.57;;
27586;SDS011;15019;49.002;8.420;2022-08-19T12:03:34;10.27;;;6.30;;
27586;SDS011;15019;49.002;8.420;2022-08-19T12:06:07;9.88;;;6.30;;
27586;SDS011;15019;49.002;8.420;2022-08-19T12:08:34;9.50;;;6.35;;
27586;SDS011;15019;49.002;8.420;2022-08-19T12:11:00;9.10;;;6.13;;
27586;SDS011;15019;49.002;8.420;2022-08-19T12:13:26;8.52;;;6.25;;
27586;SDS011;15019;49.002;8.420;2022-08-19T12:15:52;9.85;;;6.43;;
27586;SDS011;15019;49.002;8.420;2022-08-19T12:18:17;7.57;;;6.18;;
27586;SDS011;15019;49.002;8.420;2022-08-19T12:20:42;7.55;;;6.38;;
27586;SDS011;15019;49.002;8.420;2022-08-19T12:23:09;6.95;;;6.03;;
27586;SDS011;15019;49.002;8.420;2022-08-19T12:25:43;7.00;;;6.23;;
27586;SDS011;15019;49.002;8.420;2022-08-19T12:28:10;15.52;;;7.20;;
27586;SDS011;15019;49.002;8.420;2022-08-19T12:30:37;7.45;;;6.63;;
27586;SDS011;15019;49.002;8.420;2022-08-19T12:33:03;8.25;;;7.10;;
27586;SDS011;15019;49.002;8.420;2022-08-19T12:35:28;15.48;;;7.05;;
27586;SDS011;15019;49.002;8.420;2022-08-19T12:37:53;9.00;;;6.60;;
27586;SDS011;15019;49.002;8.420;2022-08-19T12:40:19;8.85;;;6.75;;
27586;SDS011;15019;49.002;8.420;2022-08-19T12:42:44;10.48;;;6.60;;
27586;SDS011;15019;49.002;8.420;2022-08-19T12:45:13;10.77;;;6.60;;
27586;SDS011;15019;49.002;8.420;2022-08-19T12:47:39;9.52;;;6.38;;
27586;SDS011;15019;49.002;8.420;2022-08-19T12:50:05;9.82;;;6.70;;
27586;SDS011;15019;49.002;8.420;2022-08-19T12:52:31;17.63;;;6.90;;
27586;SDS011;15019;49.002;8.420;2022-08-19T12:54:56;8.60;;;6.80;;
27586;SDS011;15019;49.002;8.420;2022-08-19T12:57:23;7.30;;;6.50;;
27586;SDS011;15019;49.002;8.420;2022-08-19T12:59:53;8.68;;;6.97;;
27586;SDS011;15019;49.002;8.420;2022-08-19T13:02:18;6.82;;;6.18;;
27586;SDS011;15019;49.002;8.420;2022-08-19T13:04:44;9.52;;;6.10;;
27586;SDS011;15019;49.002;8.420;2022-08-19T13:07:10;7.85;;;5.97;;
27586;SDS011;15019;49.002;8.420;2022-08-19T13:09:35;10.10;;;6.20;;
27586;SDS011;15019;49.002;8.420;2022-08-19T13:12:01;6.60;;;5.72;;
27586;SDS011;15019;49.002;8.420;2022-08-19T13:14:27;8.38;;;5.60;;
27586;SDS011;15019;49.002;8.420;2022-08-19T13:16:52;11.70;;;5.90;;
27586;SDS011;15019;49.002;8.420;2022-08-19T13:19:19;7.35;;;5.75;;
27586;SDS011;15019;49.002;8.420;2022-08-19T13:21:44;6.75;;;5.70;;
27586;SDS011;15019;49.002;8.420;2022-08-19T13:24:14;6.30;;;5.43;;
27586;SDS011;15019;49.002;8.420;2022-08-19T13:26:39;6.28;;;5.53;;
27586;SDS011;15019;49.002;8.420;2022-08-19T13:29:05;8.40;;;4.60;;
27586;SDS011;15019;49.002;8.420;2022-08-19T13:31:31;5.22;;;4.10;;
27586;SDS011;15019;49.002;8.420;2022-08-19T13:33:59;4.25;;;3.78;;
27586;SDS011;15019;49.002;8.420;2022-08-19T13:36:24;4.90;;;4.40;;
27586;SDS011;15019;49.002;8.420;2022-08-19T13:38:50;7.00;;;3.80;;
27586;SDS011;15019;49.002;8.420;2022-08-19T13:41:15;6.60;;;3.78;;
27586;SDS011;15019;49.002;8.420;2022-08-19T13:43:40;4.55;;;3.65;;
27586;SDS011;15019;49.002;8.420;2022-08-19T13:46:08;5.65;;;2.97;;
27586;SDS011;15019;49.002;8.420;2022-08-19T13:48:35;3.75;;;2.85;;
27586;SDS011;15019;49.002;8.420;2022-08-19T13:51:01;3.92;;;3.20;;
27586;SDS011;15019;49.002;8.420;2022-08-19T13:53:30;6.72;;;3.03;;
27586;SDS011;15019;49.002;8.420;2022-08-19T13:55:55;3.83;;;3.22;;
27586;SDS011;15019;49.002;8.420;2022-08-19T13:58:21;5.53;;;3.00;;
27586;SDS011;15019;49.002;8.420;2022-08-19T14:00:46;3.88;;;3.00;;
27586;SDS011;15019;49.002;8.420;2022-08-19T14:03:12;4.25;;;3.17;;
27586;SDS011;15019;49.002;8.420;2022-08-19T14:05:38;4.57;;;3.30;;
27586;SDS011;15019;49.002;8.420;2022-08-19T14:08:03;5.47;;;3.42;;
27586;SDS011;15019;49.002;8.420;2022-08-19T14:10:30;4.28;;;3.25;;
27586;SDS011;15019;49.002;8.420;2022-08-19T14:12:56;4.22;;;3.15;;
27586;SDS011;15019;49.002;8.420;2022-08-19T14:15:23;3.75;;;3.35;;
27586;SDS011;15019;49.002;8.420;2022-08-19T14:17:48;3.97;;;3.33;;
27586;SDS011;15019;49.002;8.420;2022-08-19T14:20:14;4.07;;;3.67;;
27586;SDS011;15019;49.002;8.420;2022-08-19T14:22:40;4.60;;;3.50;;
27586;SDS011;15019;49.002;8.420;2022-08-19T14:25:06;3.90;;;3.50;;
27586;SDS011;15019;49.002;8.420;2022-08-19T14:27:37;4.63;;;3.75;;
27586;SDS011;15019;49.002;8.420;2022-08-19T14:30:05;5.45;;;3.90;;
27586;SDS011;15019;49.002;8.420;2022-08-19T14:32:31;6.47;;;3.92;;
27586;SDS011;15019;49.002;8.420;2022-08-19T14:34:56;7.22;;;3.65;;
27586;SDS011;15019;49.002;8.420;2022-08-19T14:37:22;6.43;;;3.70;;
27586;SDS011;15019;49.002;8.420;2022-08-19T14:39:47;5.40;;;3.90;;
27586;SDS011;15019;49.002;8.420;2022-08-19T14:42:13;4.28;;;3.45;;
27586;SDS011;15019;49.002;8.420;2022-08-19T14:44:39;4.57;;;4.00;;
27586;SDS011;15019;49.002;8.420;2022-08-19T14:47:04;4.35;;;3.78;;